Time;durP1;ratioP1;P1;durP2;ratioP2;P2;SDS_P1;SDS_P2;PMS_P1;PMS_P2;Temp;Humidity;BMP_temperature;BMP_pressure;BME280_temperature;BME280_humidity;BME280_pressure;Samples;Min_cycle;Max_cycle;Signal;HPM_P1;HPM_P2
2023/10/26 00:00:56;;;;;;;1.33;1.20;;;;;;;21.80;45.60;98238.16;4497095;28;20068;-70
2023/10/26 00:03:07;;;;;;;1.27;1.17;;;;;;;21.80;46.11;98245.97;4496470;28;20618;-70
2023/10/26 00:05:18;;;;;;;1.38;1.27;;;;;;;21.76;45.67;98239.47;4499413;28;20117;-70
2023/10/26 00:07:28;;;;;;;1.67;1.52;;;;;;;21.79;45.75;98242.28;4496325;28;20042;-70
2023/10/26 00:09:39;;;;;;;1.50;1.40;;;;;;;21.81;45.78;98250.47;4504290;28;20080;-70
2023/10/26 00:11:50;;;;;;;1.98;1.77;;;;;;;21.78;45.47;98255.03;4487937;28;20133;-70
2023/10/26 00:14:00;;;;;;;2.03;1.60;;;;;;;21.78;45.19;98252.16;4499057;28;20034;-70
2023/10/26 00:16:11;;;;;;;1.80;1.70;;;;;;;21.79;45.17;98250.06;4504960;28;20061;-70
2023/10/26 00:18:22;;;;;;;2.00;1.80;;;;;;;21.78;45.49;98249.28;4496655;28;20065;-71
2023/10/26 00:20:32;;;;;;;2.15;1.92;;;;;;;21.76;44.97;98248.91;4494959;28;20038;-70
2023/10/26 00:22:43;;;;;;;2.47;2.05;;;;;;;21.80;44.97;98257.47;4497105;28;20074;-70
2023/10/26 00:24:53;;;;;;;2.50;2.15;;;;;;;21.78;45.30;98257.91;4496067;28;20121;-70
2023/10/26 00:27:04;;;;;;;2.20;2.00;;;;;;;21.79;45.05;98258.69;4504106;28;20104;-70
2023/10/26 00:29:14;;;;;;;2.33;1.95;;;;;;;21.74;45.38;98247.69;4496226;28;20070;-70
2023/10/26 00:31:24;;;;;;;2.30;2.03;;;;;;;21.78;45.31;98259.94;4495611;28;20494;-70
2023/10/26 00:33:35;;;;;;;2.92;2.40;;;;;;;21.78;44.95;98260.75;4496209;28;20027;-70
2023/10/26 00:35:46;;;;;;;2.90;2.20;;;;;;;21.78;44.78;98268.56;4494356;28;20072;-70
2023/10/26 00:37:56;;;;;;;2.90;2.45;;;;;;;21.79;45.19;98273.88;4496465;28;20525;-71
2023/10/26 00:40:07;;;;;;;2.90;2.40;;;;;;;21.73;45.09;98261.22;4498047;28;20017;-70
2023/10/26 00:42:18;;;;;;;2.38;2.00;;;;;;;21.71;44.95;98263.69;4495282;28;20813;-70
2023/10/26 00:44:28;;;;;;;2.30;2.00;;;;;;;21.68;45.24;98267.44;4494402;28;20466;-70
2023/10/26 00:46:40;;;;;;;3.08;2.50;;;;;;;21.76;45.03;98276.78;4498181;28;20042;-70
2023/10/26 00:48:52;;;;;;;3.22;2.50;;;;;;;21.76;45.15;98271.88;4495969;28;20062;-70
2023/10/26 00:51:02;;;;;;;3.10;2.50;;;;;;;21.78;44.98;98275.13;4495493;28;20679;-70
2023/10/26 00:53:14;;;;;;;3.10;2.47;;;;;;;21.79;44.90;98279.59;4494506;28;20022;-70
2023/10/26 00:55:26;;;;;;;2.72;2.22;;;;;;;21.76;44.93;98276.78;4495938;28;20161;-70
2023/10/26 00:57:37;;;;;;;3.10;2.47;;;;;;;21.72;44.84;98273.91;4505111;28;20034;-70
2023/10/26 00:59:48;;;;;;;3.10;2.42;;;;;;;21.78;44.61;98275.13;4580743;22;20065;-57
2023/10/26 01:02:02;;;;;;;3.03;2.53;;;;;;;21.79;44.48;98299.72;4512595;28;20565;-57
2023/10/26 01:04:15;;;;;;;3.22;2.47;;;;;;;21.79;44.81;98296.84;4513058;28;20181;-57
2023/10/26 01:06:25;;;;;;;3.08;2.40;;;;;;;21.79;44.71;98302.59;4514740;28;20053;-57
2023/10/26 01:08:36;;;;;;;3.00;2.30;;;;;;;21.67;44.73;98283.03;4515146;28;20732;-54
2023/10/26 01:10:47;;;;;;;3.45;2.65;;;;;;;21.79;44.92;98304.63;4523350;28;20042;-57
2023/10/26 01:12:58;;;;;;;3.35;2.92;;;;;;;21.77;44.56;98305.06;4515762;28;20520;-57
2023/10/26 01:15:08;;;;;;;2.70;2.45;;;;;;;21.79;44.28;98314.06;4530260;28;20064;-57
2023/10/26 01:17:19;;;;;;;3.22;2.60;;;;;;;21.79;44.58;98314.06;4523552;28;20484;-57
2023/10/26 01:19:41;;;;;;;3.25;2.50;;;;;;;21.79;44.74;98319.81;4523002;28;20995;-57
2023/10/26 01:21:52;;;;;;;2.95;2.40;;;;;;;21.74;44.51;98311.63;4514283;28;20041;-57
2023/10/26 01:24:04;;;;;;;2.90;2.40;;;;;;;21.74;44.54;98311.63;4515088;28;20030;-57
2023/10/26 01:26:14;;;;;;;2.42;2.10;;;;;;;21.79;44.18;98319.81;4523239;28;20033;-57
2023/10/26 01:28:25;;;;;;;3.20;2.22;;;;;;;21.79;44.24;98324.72;4521549;28;20422;-56
2023/10/26 01:30:35;;;;;;;2.10;1.90;;;;;;;21.79;43.96;98333.34;4515983;28;20498;-57
2023/10/26 01:32:46;;;;;;;2.40;1.90;;;;;;;21.77;44.00;98333.78;4530147;28;20082;-56
2023/10/26 01:34:56;;;;;;;2.22;1.80;;;;;;;21.79;44.07;98336.22;4515688;28;20038;-57
2023/10/26 01:37:07;;;;;;;2.33;1.90;;;;;;;21.78;43.96;98335.44;4522407;28;20037;-57
2023/10/26 01:39:18;;;;;;;2.50;2.10;;;;;;;21.78;44.05;98335.44;4521747;28;20039;-57
2023/10/26 01:41:32;;;;;;;2.47;2.00;;;;;;;21.78;43.70;98341.16;4514908;28;20091;-54
2023/10/26 01:43:42;;;;;;;2.50;1.95;;;;;;;21.78;43.56;98335.44;4529905;28;20033;-55
2023/10/26 01:45:53;;;;;;;2.10;1.73;;;;;;;21.79;43.38;98339.91;4515478;28;20065;-57
2023/10/26 01:48:04;;;;;;;2.28;2.00;;;;;;;21.78;43.43;98340.34;4523148;28;20025;-55
2023/10/26 01:50:14;;;;;;;1.80;1.70;;;;;;;21.79;43.47;98341.97;4516139;28;20034;-56
2023/10/26 01:52:25;;;;;;;2.17;1.98;;;;;;;21.79;43.80;98341.97;4515381;28;20113;-57
2023/10/26 01:54:35;;;;;;;1.92;1.70;;;;;;;21.79;43.34;98341.97;4515818;28;20044;-56
2023/10/26 01:56:46;;;;;;;2.20;1.90;;;;;;;21.77;43.38;98336.66;4508225;28;20052;-57
2023/10/26 01:58:57;;;;;;;2.03;1.70;;;;;;;21.72;43.36;98333.44;4514011;28;20025;-55
2023/10/26 02:01:07;;;;;;;2.28;1.75;;;;;;;21.78;43.50;98340.34;4518525;28;20095;-57
2023/10/26 02:03:18;;;;;;;2.40;1.75;;;;;;;21.78;43.56;98341.16;4522769;28;20540;-57
2023/10/26 02:05:28;;;;;;;2.45;1.70;;;;;;;21.78;43.49;98341.16;4514897;28;20430;-57
2023/10/26 02:07:39;;;;;;;1.77;1.65;;;;;;;21.78;43.38;98343.22;4519892;28;20029;-55
2023/10/26 02:09:50;;;;;;;1.98;1.70;;;;;;;21.78;43.62;98344.03;4530099;28;20045;-56
2023/10/26 02:12:00;;;;;;;2.20;1.90;;;;;;;21.58;43.47;98317.16;4514864;28;20060;-57
2023/10/26 02:14:10;;;;;;;1.58;1.40;;;;;;;21.76;43.34;98352.25;4514151;28;20022;-56
2023/10/26 02:16:21;;;;;;;1.90;1.48;;;;;;;21.79;43.62;98353.44;4518389;28;20104;-56
2023/10/26 02:18:31;;;;;;;2.08;1.60;;;;;;;21.78;43.17;98352.66;4517097;28;20038;-57
2023/10/26 02:20:42;;;;;;;1.90;1.70;;;;;;;21.77;42.94;98356.75;4523106;28;20048;-57
2023/10/26 02:22:52;;;;;;;1.67;1.50;;;;;;;21.78;43.46;98352.66;4520936;28;21377;-56
2023/10/26 02:25:03;;;;;;;1.60;1.40;;;;;;;21.77;42.93;98356.75;4517253;28;20502;-57
2023/10/26 02:27:13;;;;;;;2.15;1.75;;;;;;;21.77;43.15;98359.63;4514497;28;20065;-56
2023/10/26 02:29:24;;;;;;;1.70;1.50;;;;;;;21.78;42.99;98363.31;4515060;28;20044;-57
2023/10/26 02:31:34;;;;;;;1.70;1.60;;;;;;;21.77;42.96;98362.50;4520338;28;20433;-57
2023/10/26 02:33:45;;;;;;;1.70;1.60;;;;;;;21.77;42.95;98364.56;4516723;28;20033;-57
2023/10/26 02:35:55;;;;;;;1.83;1.58;;;;;;;21.72;42.91;98357.19;4514992;28;20041;-55
2023/10/26 02:38:06;;;;;;;1.52;1.42;;;;;;;21.77;42.85;98368.25;4530938;28;20869;-57
2023/10/26 02:40:16;;;;;;;1.83;1.70;;;;;;;21.77;42.91;98367.44;4516419;28;20041;-56
2023/10/26 02:42:27;;;;;;;1.60;1.50;;;;;;;21.76;43.14;98369.50;4522143;28;20473;-55
2023/10/26 02:44:37;;;;;;;1.60;1.50;;;;;;;21.77;43.09;98365.38;4512861;28;20037;-56
2023/10/26 02:46:47;;;;;;;1.60;1.50;;;;;;;21.75;42.75;98365.00;4514353;28;20057;-57
2023/10/26 02:48:58;;;;;;;1.50;1.40;;;;;;;21.77;42.76;98367.44;4516692;28;22074;-54
2023/10/26 02:51:08;;;;;;;1.60;1.50;;;;;;;21.76;42.65;98375.22;4522786;28;20017;-57
2023/10/26 02:53:19;;;;;;;1.63;1.50;;;;;;;21.76;42.98;98375.22;4505387;28;20045;-57
2023/10/26 02:55:29;;;;;;;1.50;1.30;;;;;;;21.78;42.85;98380.53;4514384;28;20154;-55
2023/10/26 02:57:40;;;;;;;1.60;1.48;;;;;;;21.77;42.63;98376.06;4524364;28;20111;-57
2023/10/26 02:59:50;;;;;;;1.52;1.42;;;;;;;21.77;42.49;98381.81;4517334;28;20045;-56
2023/10/26 03:02:01;;;;;;;1.40;1.30;;;;;;;21.77;42.56;98379.72;4520994;28;20041;-56
2023/10/26 03:04:11;;;;;;;1.67;1.50;;;;;;;21.77;42.32;98391.22;4515231;28;20468;-56
2023/10/26 03:06:22;;;;;;;1.38;1.27;;;;;;;21.77;42.64;98388.34;4515121;28;20053;-57
2023/10/26 03:08:32;;;;;;;1.60;1.30;;;;;;;21.71;42.28;98374.84;4513383;28;20033;-56
2023/10/26 03:10:43;;;;;;;1.52;1.42;;;;;;;21.76;42.60;98383.84;4521819;28;20077;-57
2023/10/26 03:12:53;;;;;;;1.58;1.42;;;;;;;21.77;42.14;98391.22;4522212;28;20030;-55
2023/10/26 03:15:04;;;;;;;1.40;1.30;;;;;;;21.77;42.48;98388.34;4527175;28;26743;-57
2023/10/26 03:17:17;;;;;;;1.52;1.42;;;;;;;21.76;42.53;98383.84;4514753;28;20038;-57
2023/10/26 03:19:28;;;;;;;1.67;1.58;;;;;;;21.77;42.17;98388.34;4528491;28;20030;-57
2023/10/26 03:21:39;;;;;;;1.65;1.55;;;;;;;21.77;42.20;98388.34;4512982;28;20568;-57
2023/10/26 03:23:53;;;;;;;1.50;1.40;;;;;;;21.71;42.15;98380.59;4513700;28;20033;-56
2023/10/26 03:26:09;;;;;;;1.60;1.50;;;;;;;21.72;42.13;98383.03;4515692;28;20038;-57
2023/10/26 03:28:19;;;;;;;1.60;1.50;;;;;;;21.77;42.54;98396.94;4514592;28;20049;-56
2023/10/26 03:30:30;;;;;;;1.70;1.60;;;;;;;21.76;42.07;98395.34;4518237;28;20037;-57
2023/10/26 03:32:40;;;;;;;1.80;1.60;;;;;;;21.76;42.33;98394.50;4529061;28;20052;-57
2023/10/26 03:34:52;;;;;;;2.00;1.65;;;;;;;21.77;41.89;98390.41;4529863;28;20086;-57
2023/10/26 03:37:02;;;;;;;1.73;1.63;;;;;;;21.77;42.24;98402.69;4512835;28;20034;-57
2023/10/26 03:39:13;;;;;;;1.90;1.75;;;;;;;21.77;42.55;98402.69;4529769;28;20071;-56
2023/10/26 03:41:24;;;;;;;1.88;1.77;;;;;;;21.77;42.55;98402.69;4521208;28;20045;-56
2023/10/26 03:43:34;;;;;;;1.95;1.75;;;;;;;21.76;42.35;98401.06;4521116;28;20489;-57
2023/10/26 03:45:45;;;;;;;1.65;1.55;;;;;;;21.76;42.52;98409.69;4514531;28;20391;-56
2023/10/26 03:47:56;;;;;;;2.10;1.90;;;;;;;21.76;42.47;98403.94;4514225;28;20085;-57
2023/10/26 03:50:06;;;;;;;1.73;1.63;;;;;;;21.76;42.45;98406.81;4513503;28;20021;-57
2023/10/26 03:52:20;;;;;;;1.80;1.70;;;;;;;21.76;42.28;98401.06;4514520;28;20025;-56
2023/10/26 03:54:30;;;;;;;1.70;1.60;;;;;;;21.77;42.40;98396.16;4514458;28;20073;-55
2023/10/26 03:56:41;;;;;;;1.90;1.80;;;;;;;21.74;42.16;98397.78;4522130;28;20417;-57
2023/10/26 03:58:52;;;;;;;2.03;1.83;;;;;;;21.77;41.95;98396.16;4516907;28;20514;-57
2023/10/26 04:01:02;;;;;;;2.58;1.85;;;;;;;21.77;42.31;98396.94;4521744;28;20084;-57
2023/10/26 04:03:13;;;;;;;1.75;1.65;;;;;;;21.76;42.21;98385.91;4520586;28;20025;-56
2023/10/26 04:05:24;;;;;;;1.85;1.70;;;;;;;21.77;42.12;98390.41;4513441;28;20026;-57
2023/10/26 04:07:34;;;;;;;1.90;1.80;;;;;;;21.77;42.32;98390.41;4513619;28;20034;-57
2023/10/26 04:09:45;;;;;;;2.40;2.20;;;;;;;21.75;42.15;98396.59;4513453;28;20493;-57
2023/10/26 04:11:55;;;;;;;2.53;1.95;;;;;;;21.75;41.97;98399.47;4513301;28;21065;-56
2023/10/26 04:14:06;;;;;;;2.10;1.90;;;;;;;21.76;41.82;98388.75;4513230;28;20029;-57
2023/10/26 04:16:16;;;;;;;1.98;1.88;;;;;;;21.77;42.00;98387.53;4513917;28;20113;-57
2023/10/26 04:18:27;;;;;;;1.85;1.75;;;;;;;21.71;42.05;98392.91;4513437;28;20088;-57
2023/10/26 04:20:37;;;;;;;1.90;1.80;;;;;;;21.76;42.29;98383.84;4512772;28;20140;-54
2023/10/26 04:22:48;;;;;;;2.40;1.70;;;;;;;21.76;42.00;98388.75;4513070;28;20037;-56
2023/10/26 04:24:58;;;;;;;2.17;1.98;;;;;;;21.75;42.06;98390.84;4513307;28;20116;-56
2023/10/26 04:27:09;;;;;;;2.00;1.80;;;;;;;21.74;42.14;98385.50;4514129;28;20069;-57
2023/10/26 04:29:19;;;;;;;1.77;1.67;;;;;;;21.75;42.22;98396.59;4512710;28;20049;-57
2023/10/26 04:31:29;;;;;;;1.83;1.73;;;;;;;21.76;42.09;98397.38;4514275;28;20032;-57
2023/10/26 04:33:40;;;;;;;1.80;1.70;;;;;;;21.75;42.25;98393.72;4512200;28;20030;-57
2023/10/26 04:35:51;;;;;;;1.80;1.70;;;;;;;21.75;41.76;98393.72;4513588;28;20045;-57
2023/10/26 04:38:01;;;;;;;1.77;1.67;;;;;;;21.75;42.34;98387.97;4512645;28;20112;-55
2023/10/26 04:40:12;;;;;;;1.80;1.70;;;;;;;21.75;42.49;98396.59;4512552;28;20048;-56
2023/10/26 04:42:22;;;;;;;1.83;1.70;;;;;;;21.75;41.96;98393.72;4513107;28;20038;-57
2023/10/26 04:44:33;;;;;;;1.40;1.30;;;;;;;21.69;42.51;98392.50;4514078;28;20682;-57
2023/10/26 04:46:44;;;;;;;1.70;1.60;;;;;;;21.75;42.49;98393.72;4512571;28;20069;-57
2023/10/26 04:48:54;;;;;;;1.30;1.20;;;;;;;21.74;42.37;98392.03;4513397;28;20068;-56
2023/10/26 04:51:06;;;;;;;1.88;1.45;;;;;;;21.75;42.71;98392.88;4512504;28;20580;-57
2023/10/26 04:53:16;;;;;;;1.58;1.40;;;;;;;21.72;42.76;98391.63;4512859;28;20100;-57
2023/10/26 04:55:30;;;;;;;1.40;1.30;;;;;;;21.73;42.83;98393.28;4513156;28;20542;-57
2023/10/26 04:57:40;;;;;;;1.50;1.40;;;;;;;21.73;42.62;98396.16;4512553;28;20029;-57
2023/10/26 04:59:51;;;;;;;1.48;1.38;;;;;;;21.72;42.75;98397.38;4521328;28;20033;-57
2023/10/26 05:02:01;;;;;;;1.30;1.20;;;;;;;21.73;42.75;98389.59;4513587;28;20034;-57
2023/10/26 05:04:11;;;;;;;1.40;1.30;;;;;;;21.72;42.43;98391.63;4512303;28;20046;-57
2023/10/26 05:06:22;;;;;;;1.40;1.30;;;;;;;21.72;42.57;98394.50;4515697;28;20033;-57
2023/10/26 05:08:32;;;;;;;1.38;1.27;;;;;;;21.66;42.66;98383.94;4514205;28;20058;-57
2023/10/26 05:10:44;;;;;;;1.48;1.38;;;;;;;21.72;42.70;98400.25;4513505;28;20120;-57
2023/10/26 05:12:54;;;;;;;1.25;1.15;;;;;;;21.73;42.83;98410.50;4520262;28;20616;-57
2023/10/26 05:15:05;;;;;;;1.20;1.10;;;;;;;21.73;42.62;98404.78;4512999;28;20053;-57
2023/10/26 05:17:15;;;;;;;1.17;1.10;;;;;;;21.73;42.89;98401.06;4513399;28;20077;-56
2023/10/26 05:19:26;;;;;;;1.27;1.17;;;;;;;21.72;42.84;98411.75;4512069;28;20107;-57
2023/10/26 05:21:36;;;;;;;1.15;1.10;;;;;;;21.69;42.66;98412.59;4520995;28;20171;-57
2023/10/26 05:23:47;;;;;;;1.20;1.10;;;;;;;21.66;42.52;98399.09;4513144;28;20041;-57
2023/10/26 05:25:57;;;;;;;1.17;1.08;;;;;;;21.72;42.89;98411.75;4513110;28;20084;-56
2023/10/26 05:28:08;;;;;;;1.25;1.15;;;;;;;21.71;42.84;98410.13;4511640;28;20056;-56
2023/10/26 05:30:18;;;;;;;1.20;1.10;;;;;;;21.73;42.80;98409.69;4512942;28;20528;-57
2023/10/26 05:32:29;;;;;;;1.20;1.10;;;;;;;21.74;42.50;98406.41;4512902;28;20026;-56
2023/10/26 05:34:39;;;;;;;1.25;1.15;;;;;;;21.73;42.87;98410.50;4523775;28;20117;-57
2023/10/26 05:36:50;;;;;;;0.95;0.90;;;;;;;21.73;42.93;98413.38;4512976;28;20050;-57
2023/10/26 05:39:00;;;;;;;0.95;0.95;;;;;;;21.74;42.81;98420.75;4513288;28;20038;-57
2023/10/26 05:41:11;;;;;;;1.10;1.00;;;;;;;21.74;42.48;98412.13;4511827;28;20921;-57
2023/10/26 05:43:22;;;;;;;1.00;0.90;;;;;;;21.74;42.84;98415.00;4512113;28;20034;-57
2023/10/26 05:45:39;;;;;;;0.95;0.93;;;;;;;21.74;42.95;98414.22;4514164;28;20073;-57
2023/10/26 05:47:52;;;;;;;1.02;0.98;;;;;;;21.75;43.08;98415.84;4517066;28;20152;-56
2023/10/26 05:50:04;;;;;;;1.10;1.05;;;;;;;21.74;42.56;98412.13;4515945;28;20048;-57
2023/10/26 05:52:15;;;;;;;0.90;0.90;;;;;;;21.75;42.48;98410.94;4515013;28;20073;-57
2023/10/26 05:54:25;;;;;;;1.23;1.13;;;;;;;21.75;42.68;98408.06;4516201;28;20053;-56
2023/10/26 05:56:36;;;;;;;1.10;1.00;;;;;;;21.75;43.11;98413.81;4522744;28;20112;-57
2023/10/26 05:58:49;;;;;;;1.08;1.00;;;;;;;21.68;42.91;98399.50;4514452;28;20029;-57
2023/10/26 06:00:59;;;;;;;1.10;1.10;;;;;;;21.76;42.93;98420.34;4515924;28;20100;-57
2023/10/26 06:03:10;;;;;;;1.10;1.00;;;;;;;21.77;42.71;98419.13;4514821;28;20052;-56
2023/10/26 06:05:20;;;;;;;1.15;1.05;;;;;;;21.77;42.90;98422.78;4514895;28;20088;-57
2023/10/26 06:07:31;;;;;;;1.10;1.00;;;;;;;21.73;42.51;98415.44;4516389;28;20468;-56
2023/10/26 06:09:41;;;;;;;1.13;1.02;;;;;;;21.73;43.06;98412.56;4516127;28;20065;-57
2023/10/26 06:11:51;;;;;;;1.27;1.10;;;;;;;21.78;43.10;98430.19;4514993;28;20042;-57
2023/10/26 06:14:02;;;;;;;0.95;0.93;;;;;;;21.78;42.50;98433.06;4515491;28;20048;-57
2023/10/26 06:16:16;;;;;;;1.33;1.00;;;;;;;21.77;42.71;98437.16;4514283;28;20037;-57
2023/10/26 06:18:26;;;;;;;1.15;1.10;;;;;;;21.79;42.74;98440.41;4515629;28;20034;-56
2023/10/26 06:20:36;;;;;;;1.13;1.02;;;;;;;21.79;43.14;98443.28;4515039;28;20789;-55
2023/10/26 06:22:47;;;;;;;1.00;1.00;;;;;;;21.80;42.86;98447.00;4514455;28;20375;-56
2023/10/26 06:24:57;;;;;;;1.20;1.10;;;;;;;21.80;42.60;98447.00;4515331;28;20042;-56
2023/10/26 06:27:08;;;;;;;1.10;1.00;;;;;;;21.79;42.99;98449.03;4514750;28;20042;-56
2023/10/26 06:29:19;;;;;;;1.30;1.20;;;;;;;21.81;43.06;98449.44;4514434;28;20030;-54
2023/10/26 06:31:29;;;;;;;1.30;1.20;;;;;;;21.78;42.97;98450.28;4514569;28;20076;-56
2023/10/26 06:33:40;;;;;;;1.30;1.20;;;;;;;21.81;42.99;98452.31;4514787;28;20034;-55
2023/10/26 06:35:51;;;;;;;1.30;1.20;;;;;;;21.82;42.55;98451.06;4515162;28;20132;-57
2023/10/26 06:38:01;;;;;;;1.30;1.20;;;;;;;21.82;42.95;98451.06;4514986;28;27951;-54
2023/10/26 06:40:12;;;;;;;1.30;1.20;;;;;;;21.84;43.06;98457.19;4514313;28;20041;-56
2023/10/26 06:42:22;;;;;;;1.20;1.10;;;;;;;21.83;42.68;98457.63;4515011;28;20022;-56
2023/10/26 06:44:42;;;;;;;1.38;1.15;;;;;;;21.85;42.94;98460.88;4522543;28;20784;-56
2023/10/26 06:46:52;;;;;;;1.30;1.20;;;;;;;21.84;42.96;98454.31;4513373;28;20046;-56
2023/10/26 06:49:02;;;;;;;1.20;1.10;;;;;;;21.85;42.69;98455.16;4516904;28;20064;-56
2023/10/26 06:51:13;;;;;;;1.27;1.17;;;;;;;21.78;42.54;98441.66;4514788;28;20038;-54
2023/10/26 06:53:24;;;;;;;1.30;1.20;;;;;;;21.85;43.12;98463.75;4514709;28;20103;-57
2023/10/26 06:55:35;;;;;;;1.42;1.33;;;;;;;21.84;43.06;98460.06;4513629;28;20119;-56
2023/10/26 06:57:45;;;;;;;1.27;1.17;;;;;;;21.85;43.01;98464.56;4514235;28;20090;-57
2023/10/26 06:59:56;;;;;;;1.25;1.15;;;;;;;21.86;42.93;98463.34;4512542;28;20619;-57
2023/10/26 07:02:06;;;;;;;1.30;1.20;;;;;;;21.86;43.01;98457.59;4514492;28;20124;-56
2023/10/26 07:04:17;;;;;;;1.30;1.20;;;;;;;21.86;42.72;98463.34;4513916;28;20022;-57
2023/10/26 07:06:27;;;;;;;1.00;1.00;;;;;;;21.87;42.65;98470.69;4514785;28;20053;-56
2023/10/26 07:08:38;;;;;;;1.20;1.10;;;;;;;21.83;42.52;98464.19;4515752;28;20038;-57
2023/10/26 07:10:48;;;;;;;1.27;1.17;;;;;;;21.87;42.81;98470.69;4513851;28;20030;-57
2023/10/26 07:12:59;;;;;;;1.30;1.20;;;;;;;21.87;43.10;98470.69;4515540;28;20026;-57
2023/10/26 07:15:10;;;;;;;1.23;1.13;;;;;;;21.82;42.81;98462.53;4513254;28;20042;-56
2023/10/26 07:17:21;;;;;;;1.30;1.20;;;;;;;21.87;43.05;98473.56;4512503;28;20038;-56
2023/10/26 07:19:31;;;;;;;1.30;1.20;;;;;;;21.87;43.01;98479.31;4513950;28;20040;-56
2023/10/26 07:21:44;;;;;;;1.17;1.08;;;;;;;21.87;43.03;98473.56;4515220;28;20504;-57
2023/10/26 07:23:54;;;;;;;1.42;1.30;;;;;;;21.87;43.24;98482.19;4514361;28;20033;-57
2023/10/26 07:26:05;;;;;;;1.30;1.20;;;;;;;21.86;43.10;98486.31;4521236;28;20044;-56
2023/10/26 07:28:15;;;;;;;1.30;1.20;;;;;;;21.87;43.20;98479.31;4514064;28;20076;-56
2023/10/26 07:30:26;;;;;;;1.52;1.42;;;;;;;21.84;42.86;98483.03;4520601;28;20057;-57
2023/10/26 07:32:36;;;;;;;1.20;1.10;;;;;;;21.76;43.02;98470.00;4521212;28;20064;-57
2023/10/26 07:34:46;;;;;;;1.30;1.20;;;;;;;21.80;43.06;98467.09;4514159;28;20061;-57
2023/10/26 07:36:57;;;;;;;1.60;1.50;;;;;;;21.87;43.20;98476.44;4513216;28;20470;-57
2023/10/26 07:39:08;;;;;;;1.30;1.20;;;;;;;21.82;43.21;98461.72;4514127;28;20099;-57
2023/10/26 07:41:18;;;;;;;1.50;1.40;;;;;;;21.86;43.22;98474.00;4513810;28;20037;-57
2023/10/26 07:43:29;;;;;;;1.73;1.48;;;;;;;21.78;43.37;98458.06;4512755;28;20029;-57
2023/10/26 07:45:39;;;;;;;1.23;1.13;;;;;;;21.87;43.25;98473.56;4504984;28;20042;-57
2023/10/26 07:47:50;;;;;;;1.40;1.30;;;;;;;21.86;43.04;98483.44;4514353;28;20423;-57
2023/10/26 07:50:00;;;;;;;1.40;1.30;;;;;;;21.86;43.40;98474.00;4513914;28;20119;-57
2023/10/26 07:52:11;;;;;;;1.25;1.15;;;;;;;21.86;43.31;98483.44;4514723;28;20034;-56
2023/10/26 07:54:21;;;;;;;1.40;1.30;;;;;;;21.86;43.22;98482.59;4514277;28;20561;-56
2023/10/26 07:56:32;;;;;;;1.17;1.08;;;;;;;21.87;43.60;98487.09;4514144;28;20046;-56
2023/10/26 07:58:42;;;;;;;1.38;1.27;;;;;;;21.86;43.60;98476.88;4512817;28;20038;-57
2023/10/26 08:00:53;;;;;;;1.38;1.27;;;;;;;21.83;43.22;98481.41;4512942;28;20034;-56
2023/10/26 08:03:03;;;;;;;1.20;1.10;;;;;;;21.85;43.34;98478.13;4519947;28;20375;-56
2023/10/26 08:05:15;;;;;;;1.30;1.20;;;;;;;21.85;43.50;98481.78;4514564;28;20041;-56
2023/10/26 08:07:25;;;;;;;1.50;1.40;;;;;;;21.84;43.70;98480.16;4515198;28;20034;-57
2023/10/26 08:09:36;;;;;;;1.35;1.25;;;;;;;21.84;43.18;98479.34;4513231;28;20034;-56
2023/10/26 08:11:46;;;;;;;1.23;1.13;;;;;;;21.81;43.55;98483.91;4515261;28;20449;-56
2023/10/26 08:13:57;;;;;;;1.38;1.20;;;;;;;21.84;43.38;98485.09;4512541;28;20022;-53
2023/10/26 08:16:07;;;;;;;1.35;1.25;;;;;;;21.84;43.68;98491.66;4512413;28;20049;-54
2023/10/26 08:18:17;;;;;;;1.23;1.13;;;;;;;21.84;43.60;98485.91;4514376;28;20498;-57
2023/10/26 08:20:28;;;;;;;1.30;1.20;;;;;;;21.83;43.38;98492.91;4512394;28;20123;-57
2023/10/26 08:22:38;;;;;;;1.50;1.40;;;;;;;21.83;43.69;98490.03;4513660;28;20034;-56
2023/10/26 08:24:49;;;;;;;1.40;1.30;;;;;;;21.83;43.65;98497.81;4513166;28;20034;-57
2023/10/26 08:26:59;;;;;;;1.30;1.20;;;;;;;21.76;43.67;98481.47;4513468;28;20037;-56
2023/10/26 08:29:09;;;;;;;1.30;1.20;;;;;;;21.84;43.33;98500.28;4513617;28;20080;-57
2023/10/26 08:31:20;;;;;;;1.88;1.38;;;;;;;21.84;43.46;98497.41;4512987;28;20571;-54
2023/10/26 08:33:33;;;;;;;1.30;1.20;;;;;;;21.76;43.90;98481.47;4513048;28;20048;-55
2023/10/26 08:35:49;;;;;;;1.20;1.10;;;;;;;21.84;43.98;98493.69;4512630;28;21589;-56
2023/10/26 08:37:59;;;;;;;1.13;1.02;;;;;;;21.79;43.89;98492.09;4512714;28;20145;-56
2023/10/26 08:40:14;;;;;;;1.33;1.23;;;;;;;21.84;43.93;98490.81;4514223;28;20137;-56
2023/10/26 08:42:24;;;;;;;1.20;1.10;;;;;;;21.83;43.85;98501.53;4512717;28;20136;-55
2023/10/26 08:44:35;;;;;;;1.00;1.00;;;;;;;21.84;43.68;98500.28;4513057;28;20045;-55
2023/10/26 08:46:51;;;;;;;1.30;1.10;;;;;;;21.84;44.08;98499.44;4512728;28;20630;-57
2023/10/26 08:49:03;;;;;;;1.20;1.00;;;;;;;21.84;44.04;98494.53;4513979;28;20929;-57
2023/10/26 08:51:13;;;;;;;1.30;1.20;;;;;;;21.81;43.67;98498.25;4512039;28;20030;-57
2023/10/26 08:53:24;;;;;;;1.17;1.08;;;;;;;21.84;44.15;98497.41;4512276;28;20960;-57
2023/10/26 08:55:39;;;;;;;1.35;1.15;;;;;;;21.84;43.76;98500.28;4513757;28;20034;-57
2023/10/26 08:57:51;;;;;;;1.83;1.15;;;;;;;21.84;43.62;98510.94;4512685;28;20123;-56
2023/10/26 09:00:05;;;;;;;1.30;1.20;;;;;;;21.83;44.08;98513.00;4514139;28;20038;-57
2023/10/26 09:02:16;;;;;;;1.35;1.20;;;;;;;21.83;44.13;98510.13;4512672;28;20030;-57
2023/10/26 09:04:26;;;;;;;1.23;1.13;;;;;;;21.83;43.88;98521.63;4512275;28;20026;-55
2023/10/26 09:06:48;;;;;;;1.08;1.08;;;;;;;21.84;43.76;98522.41;4515388;28;20108;-57
2023/10/26 09:09:03;;;;;;;1.60;1.50;;;;;;;21.83;43.97;98521.63;4513219;28;20033;-57
2023/10/26 09:11:22;;;;;;;1.10;1.00;;;;;;;21.84;44.33;98529.00;4498276;28;20105;-57
2023/10/26 09:13:34;;;;;;;1.20;1.10;;;;;;;21.83;44.31;98515.88;4511005;28;20557;-57
2023/10/26 09:15:49;;;;;;;1.83;1.60;;;;;;;21.83;44.38;98518.75;4512914;28;20037;-57
2023/10/26 09:18:08;;;;;;;1.40;1.30;;;;;;;21.83;43.94;98521.63;4512124;28;20920;-58
2023/10/26 09:20:22;;;;;;;1.35;1.25;;;;;;;21.81;43.91;98520.41;4514349;28;20029;-57
2023/10/26 09:22:40;;;;;;;1.40;1.30;;;;;;;21.83;44.06;98521.63;4516387;28;20581;-57
2023/10/26 09:25:05;;;;;;;1.52;1.42;;;;;;;21.83;44.07;98540.91;4515089;28;20038;-57
2023/10/26 09:27:21;;;;;;;1.90;1.70;;;;;;;21.84;44.09;98531.03;4515604;28;21169;-57
2023/10/26 09:29:49;;;;;;;2.70;2.30;;;;;;;21.83;44.24;98530.25;4516194;28;20104;-57
2023/10/26 09:32:00;;;;;;;1.45;1.35;;;;;;;21.84;43.82;98529.00;4515694;28;20936;-56
2023/10/26 09:34:10;;;;;;;2.00;1.80;;;;;;;21.84;44.06;98525.28;4515738;28;20143;-57
2023/10/26 09:36:21;;;;;;;3.03;2.72;;;;;;;21.83;44.07;98521.63;4516235;28;20083;-56
2023/10/26 09:38:36;;;;;;;2.60;2.38;;;;;;;21.83;43.85;98515.88;4518072;28;20029;-57
2023/10/26 09:40:47;;;;;;;1.58;1.40;;;;;;;21.84;44.16;98523.25;4531133;28;20103;-56
2023/10/26 09:42:57;;;;;;;1.60;1.50;;;;;;;21.81;43.92;98523.28;4513517;28;20067;-57
2023/10/26 09:45:08;;;;;;;1.60;1.30;;;;;;;21.82;44.07;98531.47;4514606;28;20464;-57
2023/10/26 09:47:20;;;;;;;1.77;1.50;;;;;;;21.84;44.30;98531.03;4521232;28;20029;-57
2023/10/26 09:49:30;;;;;;;1.65;1.40;;;;;;;21.83;43.83;98527.38;4515209;28;20037;-57
2023/10/26 09:51:41;;;;;;;1.40;1.30;;;;;;;21.84;44.09;98543.34;4514545;28;20045;-57
2023/10/26 09:53:52;;;;;;;4.53;3.45;;;;;;;21.84;44.05;98542.53;4514728;28;20510;-58
2023/10/26 09:56:04;;;;;;;1.92;1.70;;;;;;;21.80;43.92;98536.81;4515379;28;20490;-57
2023/10/26 09:58:16;;;;;;;2.90;2.40;;;;;;;21.83;44.25;98550.34;4514502;28;20169;-58
2023/10/26 10:00:32;;;;;;;1.70;1.60;;;;;;;21.83;44.01;98550.34;4514982;28;20034;-57
2023/10/26 10:02:42;;;;;;;1.60;1.40;;;;;;;21.84;43.82;98551.13;4513660;28;20081;-57
2023/10/26 10:04:52;;;;;;;2.10;1.77;;;;;;;21.84;43.86;98559.75;4514904;28;20057;-57
2023/10/26 10:07:04;;;;;;;5.22;4.40;;;;;;;21.84;44.14;98563.44;4514773;28;20021;-57
2023/10/26 10:09:17;;;;;;;7.40;4.70;;;;;;;21.78;44.04;98561.47;4516133;28;20480;-57
2023/10/26 10:11:27;;;;;;;7.25;4.88;;;;;;;21.84;44.30;98572.06;4514888;28;21227;-56
2023/10/26 10:13:38;;;;;;;1.77;1.52;;;;;;;21.83;44.42;98567.56;4515937;28;20037;-57
2023/10/26 10:15:48;;;;;;;1.83;1.50;;;;;;;21.83;44.21;98567.56;4515200;28;20100;-57
2023/10/26 10:17:59;;;;;;;1.55;1.45;;;;;;;21.84;44.07;98574.94;4514207;28;20037;-56